createdAt,value
2022-11-23T00:01:58.978Z,95754.88
2022-11-23T00:04:28.933Z,95749.00
2022-11-23T00:06:58.187Z,95753.06
2022-11-23T00:09:28.408Z,95755.16
2022-11-23T00:11:58.773Z,95754.56
2022-11-23T00:14:27.788Z,95760.34
2022-11-23T00:16:56.743Z,95753.78
2022-11-23T00:19:25.667Z,95762.38
2022-11-23T00:21:54.592Z,95753.41
2022-11-23T00:24:23.573Z,95760.13
2022-11-23T00:26:52.479Z,95762.94
2022-11-23T00:29:24.464Z,95762.47
2022-11-23T00:31:53.586Z,95762.03
2022-11-23T00:34:23.150Z,95766.34
2022-11-23T00:36:53.660Z,95766.56
2022-11-23T00:39:23.134Z,95787.38
2022-11-23T00:41:54.902Z,95782.75
2022-11-23T00:44:25.172Z,95782.97
2022-11-23T00:46:57.124Z,95787.53
2022-11-23T00:49:27.026Z,95791.88
2022-11-23T00:51:55.900Z,95780.88
2022-11-23T00:54:26.990Z,95789.06
2022-11-23T00:56:55.880Z,95787.09
2022-11-23T00:59:26.592Z,95791.38
2022-11-23T01:01:55.844Z,95794.63
2022-11-23T01:04:27.636Z,95796.97
2022-11-23T01:06:57.463Z,95797.06
2022-11-23T01:09:27.129Z,95790.13
2022-11-23T01:11:56.327Z,95794.94
2022-11-23T01:14:29.162Z,95790.38
2022-11-23T01:16:58.065Z,95802.38
2022-11-23T01:19:27.222Z,95803.34
2022-11-23T01:21:56.098Z,95813.72
2022-11-23T01:24:25.156Z,95806.00
2022-11-23T01:26:58.551Z,95802.00
2022-11-23T01:29:29.506Z,95805.44
2022-11-23T01:31:58.547Z,95804.81
2022-11-23T01:34:27.746Z,95805.09
2022-11-23T01:37:02.601Z,95807.75
2022-11-23T01:39:31.909Z,95812.03
2022-11-23T01:42:01.363Z,95814.41
2022-11-23T01:44:33.247Z,95807.25
2022-11-23T01:47:02.670Z,95810.81
2022-11-23T01:49:33.619Z,95813.72
2022-11-23T01:52:04.717Z,95810.66
2022-11-23T01:54:36.518Z,95815.38
2022-11-23T01:57:07.391Z,95817.28
2022-11-23T01:59:37.644Z,95822.97
2022-11-23T02:02:07.278Z,95810.41
2022-11-23T02:04:38.182Z,95819.56
2022-11-23T02:07:09.219Z,95812.31
2022-11-23T02:09:38.160Z,95817.34
2022-11-23T02:12:11.645Z,95822.81
2022-11-23T02:14:43.712Z,95824.31
2022-11-23T02:17:12.582Z,95826.69
2022-11-23T02:19:45.042Z,95822.16
2022-11-23T02:22:16.228Z,95830.03
2022-11-23T02:24:48.798Z,95821.91
2022-11-23T02:27:19.408Z,95821.47
2022-11-23T02:29:49.110Z,95827.31
2022-11-23T02:32:23.097Z,95824.88
2022-11-23T02:34:52.315Z,95824.09
2022-11-23T02:37:21.172Z,95828.97
2022-11-23T02:39:51.270Z,95830.72
2022-11-23T02:42:21.590Z,95836.34
2022-11-23T02:44:52.883Z,95838.13
2022-11-23T02:47:22.438Z,95832.59
2022-11-23T02:49:51.649Z,95838.19
2022-11-23T02:52:21.145Z,95828.31
2022-11-23T02:54:50.331Z,95835.59
2022-11-23T02:57:20.664Z,95829.97
2022-11-23T02:59:49.885Z,95833.16
2022-11-23T03:02:19.271Z,95840.41
2022-11-23T03:04:51.198Z,95836.91
2022-11-23T03:07:22.324Z,95840.53
2022-11-23T03:09:51.237Z,95840.25
2022-11-23T03:12:47.553Z,95836.59
2022-11-23T03:15:18.099Z,95839.13
2022-11-23T03:17:48.033Z,95842.16
2022-11-23T03:20:17.287Z,95844.81
2022-11-23T03:22:46.236Z,95840.81
2022-11-23T03:25:16.248Z,95843.69
2022-11-23T03:27:46.553Z,95847.88
2022-11-23T03:30:15.872Z,95835.84
2022-11-23T03:32:45.500Z,95846.84
2022-11-23T03:35:17.074Z,95835.00
2022-11-23T03:37:47.246Z,95843.00
2022-11-23T03:40:16.137Z,95842.38
2022-11-23T03:42:46.676Z,95843.22
2022-11-23T03:45:15.547Z,95847.53
2022-11-23T03:47:44.537Z,95846.47
2022-11-23T03:50:14.456Z,95839.72
2022-11-23T03:52:43.439Z,95847.09
2022-11-23T03:55:12.817Z,95846.28
2022-11-23T03:57:43.374Z,95836.75
2022-11-23T04:00:15.470Z,95843.75
2022-11-23T04:02:44.552Z,95846.34
2022-11-23T04:05:13.731Z,95850.34
2022-11-23T04:07:43.876Z,95845.66
2022-11-23T04:10:18.280Z,95850.69
2022-11-23T04:12:49.890Z,95852.25
2022-11-23T04:15:20.390Z,95861.97
2022-11-23T04:17:49.334Z,95855.16
2022-11-23T04:20:18.901Z,95857.91
2022-11-23T04:22:48.879Z,95861.19
2022-11-23T04:25:18.534Z,95857.97
2022-11-23T04:27:47.538Z,95865.59
2022-11-23T04:30:17.296Z,95856.16
2022-11-23T04:32:48.333Z,95848.94
2022-11-23T04:35:18.754Z,95857.06
2022-11-23T04:37:47.680Z,95845.94
2022-11-23T04:40:16.856Z,95848.94
2022-11-23T04:42:45.796Z,95851.28
2022-11-23T04:45:15.052Z,95862.25
2022-11-23T04:47:43.990Z,95862.53
2022-11-23T04:50:15.386Z,95856.38
2022-11-23T04:52:44.290Z,95858.06
2022-11-23T04:55:13.193Z,95858.88
2022-11-23T04:57:42.137Z,95861.47
2022-11-23T05:00:12.374Z,95857.69
2022-11-23T05:02:42.338Z,95857.50
2022-11-23T05:05:11.963Z,95860.34
2022-11-23T05:07:44.625Z,95855.75
2022-11-23T05:10:14.912Z,95863.81
2022-11-23T05:12:43.868Z,95861.63
2022-11-23T05:15:13.501Z,95856.16
2022-11-23T05:17:42.762Z,95860.41
2022-11-23T05:20:13.168Z,95858.13
2022-11-23T05:22:43.498Z,95862.84
2022-11-23T05:25:12.453Z,95858.97
2022-11-23T05:27:41.672Z,95851.66
2022-11-23T05:30:11.545Z,95854.00
2022-11-23T05:32:40.470Z,95860.41
2022-11-23T05:35:10.195Z,95862.38
2022-11-23T05:37:39.525Z,95872.50
2022-11-23T05:40:10.985Z,95868.69
2022-11-23T05:42:40.207Z,95871.00
2022-11-23T05:45:11.730Z,95870.75
2022-11-23T05:50:23.664Z,95880.19
2022-11-23T05:52:53.655Z,95881.56
2022-11-23T05:55:24.329Z,95876.59
2022-11-23T05:57:54.644Z,95887.31
2022-11-23T06:00:23.826Z,95891.19
2022-11-23T06:02:53.011Z,95890.66
2022-11-23T06:05:21.900Z,95885.94
2022-11-23T06:07:54.422Z,95883.34
2022-11-23T06:10:26.518Z,95889.75
2022-11-23T06:12:55.789Z,95893.53
2022-11-23T06:15:25.806Z,95882.53
2022-11-23T06:17:54.811Z,95886.31
2022-11-23T06:20:24.351Z,95891.53
2022-11-23T06:22:54.321Z,95888.00
2022-11-23T06:25:23.266Z,95896.16
2022-11-23T06:28:00.728Z,95896.34
2022-11-23T06:30:30.211Z,95890.88
2022-11-23T06:32:59.158Z,95889.63
2022-11-23T06:35:28.150Z,95887.44
2022-11-23T06:37:57.748Z,95892.47
2022-11-23T06:40:28.087Z,95895.59
2022-11-23T06:43:20.006Z,95897.94
2022-11-23T06:45:48.943Z,95888.88
2022-11-23T06:48:18.909Z,95904.69
2022-11-23T06:50:48.508Z,95904.34
2022-11-23T06:53:17.451Z,95912.72
2022-11-23T06:55:46.394Z,95910.06
2022-11-23T06:58:16.720Z,95915.00
2022-11-23T07:01:04.304Z,95910.50
2022-11-23T07:03:33.347Z,95909.38
2022-11-23T07:06:07.053Z,95912.13
2022-11-23T07:08:53.190Z,95913.72
2022-11-23T07:11:22.935Z,95922.56
2022-11-23T07:13:53.334Z,95920.47
2022-11-23T07:16:22.268Z,95919.06
2022-11-23T07:19:05.592Z,95907.72
2022-11-23T07:21:35.563Z,95924.47
2022-11-23T07:24:04.514Z,95908.56
2022-11-23T07:26:34.479Z,95912.84
2022-11-23T07:29:07.330Z,95910.00
2022-11-23T07:31:36.235Z,95919.25
2022-11-23T07:34:09.574Z,95920.47
2022-11-23T07:36:38.786Z,95927.28
2022-11-23T07:39:09.579Z,95928.84
2022-11-23T07:41:38.815Z,95930.81
2022-11-23T07:44:14.047Z,95938.94
2022-11-23T07:46:43.114Z,95940.63
2022-11-23T07:49:12.350Z,95935.09
2022-11-23T07:51:41.512Z,95942.31
2022-11-23T07:54:10.576Z,95949.88
2022-11-23T07:56:39.997Z,95940.94
2022-11-23T07:59:10.681Z,95943.81
2022-11-23T08:01:40.162Z,95946.69
2022-11-23T08:06:55.664Z,95950.00
2022-11-23T08:09:25.963Z,95950.31
2022-11-23T08:11:58.019Z,95950.00
2022-11-23T08:14:31.103Z,95943.97
2022-11-23T08:17:00.385Z,95945.72
2022-11-23T08:19:29.294Z,95939.44
2022-11-23T08:22:06.657Z,95943.38
2022-11-23T08:24:35.881Z,95952.25
2022-11-23T08:27:05.196Z,95937.06
2022-11-23T08:29:35.715Z,95934.41
2022-11-23T08:32:05.584Z,95937.75
2022-11-23T08:34:34.895Z,95934.94
2022-11-23T08:37:04.077Z,95944.19
2022-11-23T08:39:34.566Z,95937.19
2022-11-23T08:42:03.465Z,95949.53
2022-11-23T08:44:32.584Z,95946.72
2022-11-23T08:47:02.980Z,95951.75
2022-11-23T08:49:32.816Z,95950.03
2022-11-23T08:52:01.726Z,95939.88
2022-11-23T08:54:30.855Z,95944.84
2022-11-23T08:56:59.913Z,95944.53
2022-11-23T08:59:40.263Z,95952.22
2022-11-23T09:02:10.651Z,95943.94
2022-11-23T09:04:39.601Z,95943.94
2022-11-23T09:07:08.939Z,95947.34
2022-11-23T09:09:38.051Z,95945.63
2022-11-23T09:12:07.654Z,95945.63
2022-11-23T09:14:36.964Z,95951.78
2022-11-23T09:17:06.779Z,95957.53
2022-11-23T09:19:37.132Z,95945.06
2022-11-23T09:22:06.087Z,95952.63
2022-11-23T09:24:35.618Z,95952.63
2022-11-23T09:27:04.763Z,95944.94
2022-11-23T09:29:33.654Z,95939.47
2022-11-23T09:32:03.836Z,95936.41
2022-11-23T09:34:33.073Z,95931.63
2022-11-23T09:37:07.297Z,95937.56
2022-11-23T09:39:37.667Z,95949.00
2022-11-23T09:42:15.736Z,95948.72
2022-11-23T09:44:58.363Z,95948.81
2022-11-23T09:47:52.247Z,95951.13
2022-11-23T09:50:27.458Z,95947.06
2022-11-23T09:52:57.838Z,95957.56
2022-11-23T09:55:31.644Z,95952.31
2022-11-23T09:58:02.550Z,95958.88
2022-11-23T10:00:34.893Z,95959.19
2022-11-23T10:03:04.118Z,95957.97
2022-11-23T10:05:34.787Z,95955.81
2022-11-23T10:08:08.625Z,95964.72
2022-11-23T10:10:41.498Z,95969.22
2022-11-23T10:13:20.137Z,95957.72
2022-11-23T10:15:55.696Z,95948.78
2022-11-23T10:18:30.597Z,95951.53
2022-11-23T10:21:05.378Z,95947.75
2022-11-23T10:23:49.675Z,95944.63
2022-11-23T10:26:19.362Z,95944.78
2022-11-23T10:28:49.807Z,95946.06
2022-11-23T10:31:20.360Z,95943.56
2022-11-23T10:33:56.771Z,95938.69
2022-11-23T10:36:25.896Z,95948.44
2022-11-23T10:38:59.312Z,95949.06
2022-11-23T10:41:29.531Z,95949.97
2022-11-23T10:44:05.778Z,95947.53
2022-11-23T10:46:41.443Z,95940.31
2022-11-23T10:49:14.758Z,95945.66
2022-11-23T10:51:47.639Z,95941.91
2022-11-23T10:54:39.024Z,95933.81
2022-11-23T10:57:23.601Z,95926.78
2022-11-23T10:59:59.332Z,95924.56
2022-11-23T11:02:28.377Z,95914.25
2022-11-23T11:05:16.299Z,95914.28
2022-11-23T11:07:46.205Z,95907.53
2022-11-23T11:10:38.279Z,95901.38
2022-11-23T11:13:23.455Z,95888.13
2022-11-23T11:15:55.035Z,95883.19
2022-11-23T11:18:23.939Z,95885.06
2022-11-23T11:20:57.982Z,95877.44
2022-11-23T11:23:26.907Z,95880.34
2022-11-23T11:26:23.215Z,95873.63
2022-11-23T11:28:55.366Z,95873.44
2022-11-23T11:31:36.177Z,95877.59
2022-11-23T11:34:09.627Z,95866.13
2022-11-23T11:36:39.815Z,95862.63
2022-11-23T11:39:28.783Z,95855.56
2022-11-23T11:42:00.220Z,95852.03
2022-11-23T11:44:30.440Z,95841.06
2022-11-23T11:47:04.403Z,95845.59
2022-11-23T11:49:34.658Z,95840.75
2022-11-23T11:52:06.992Z,95842.84
2022-11-23T11:54:55.226Z,95837.78
2022-11-23T11:57:27.657Z,95825.59
2022-11-23T11:59:58.463Z,95829.16
2022-11-23T12:02:28.883Z,95832.84
2022-11-23T12:05:02.320Z,95824.91
2022-11-23T12:07:33.362Z,95825.09
2022-11-23T12:10:07.168Z,95831.56
2022-11-23T12:12:38.772Z,95837.03
2022-11-23T12:15:33.254Z,95830.75
2022-11-23T12:18:11.847Z,95840.47
2022-11-23T12:20:45.468Z,95831.81
2022-11-23T12:23:20.994Z,95837.91
2022-11-23T12:25:54.541Z,95827.34
2022-11-23T12:28:33.636Z,95832.38
2022-11-23T12:31:06.591Z,95819.31
2022-11-23T12:33:48.973Z,95823.69
2022-11-23T12:36:32.395Z,95822.72
2022-11-23T12:39:05.234Z,95825.81
2022-11-23T12:41:39.993Z,95819.22
2022-11-23T12:44:37.832Z,95829.00
2022-11-23T12:47:26.878Z,95824.41
2022-11-23T12:49:57.023Z,95832.72
2022-11-23T12:52:33.522Z,95826.50
2022-11-23T12:55:06.383Z,95831.59
2022-11-23T12:57:38.257Z,95827.69
2022-11-23T13:00:24.556Z,95816.56
2022-11-23T13:03:18.422Z,95818.75
2022-11-23T13:06:02.389Z,95820.56
2022-11-23T13:08:56.647Z,95809.25
2022-11-23T13:11:33.546Z,95808.06
2022-11-23T13:14:11.608Z,95801.72
2022-11-23T13:17:04.437Z,95793.97
2022-11-23T13:19:52.452Z,95793.59
2022-11-23T13:22:22.317Z,95784.31
2022-11-23T13:28:03.002Z,95770.97
2022-11-23T13:31:13.509Z,95778.06
2022-11-23T13:33:40.131Z,95763.94
2022-11-23T13:36:16.793Z,95758.88
2022-11-23T13:38:51.678Z,95756.47
2022-11-23T13:41:50.133Z,95752.22
2022-11-23T13:44:22.578Z,95740.50
2022-11-23T13:47:01.819Z,95740.53
2022-11-23T13:52:30.673Z,95740.00
2022-11-23T13:55:11.191Z,95739.75
2022-11-23T13:57:40.996Z,95731.69
2022-11-23T14:00:39.572Z,95747.75
2022-11-23T14:03:37.864Z,95745.41
2022-11-23T14:06:08.445Z,95746.66
2022-11-23T14:08:37.730Z,95752.03
2022-11-23T14:11:12.869Z,95749.75
2022-11-23T14:13:41.836Z,95757.44
2022-11-23T14:16:16.237Z,95759.78
2022-11-23T14:19:02.865Z,95766.09
2022-11-23T14:21:38.321Z,95758.16
2022-11-23T14:24:24.059Z,95756.38
2022-11-23T14:27:23.744Z,95756.09
2022-11-23T14:30:01.038Z,95741.88
2022-11-23T14:32:36.756Z,95748.63
2022-11-23T14:35:23.287Z,95747.38
2022-11-23T14:38:19.731Z,95753.19
2022-11-23T14:40:54.605Z,95751.59
2022-11-23T14:43:24.109Z,95753.38
2022-11-23T14:45:53.446Z,95764.56
2022-11-23T14:48:23.305Z,95757.66
2022-11-23T14:51:01.012Z,95748.91
2022-11-23T14:53:32.389Z,95758.94
2022-11-23T14:56:01.391Z,95755.09
2022-11-23T14:58:32.294Z,95759.94
2022-11-23T15:01:02.324Z,95749.22
2022-11-23T15:06:22.153Z,95752.41
2022-11-23T15:08:54.528Z,95760.69
2022-11-23T15:11:24.477Z,95767.44
2022-11-23T15:13:55.203Z,95763.66
2022-11-23T15:16:24.208Z,95771.34
2022-11-23T15:18:54.311Z,95766.41
2022-11-23T15:24:22.836Z,95774.25
2022-11-23T15:26:51.812Z,95777.47
2022-11-23T15:29:33.921Z,95771.06
2022-11-23T15:34:52.233Z,95779.72
2022-11-23T15:37:21.201Z,95796.16
2022-11-23T15:39:51.599Z,95793.88
2022-11-23T15:42:21.402Z,95807.94
2022-11-23T15:44:55.114Z,95810.59
2022-11-23T15:47:28.045Z,95811.44
2022-11-23T15:50:00.799Z,95824.44
2022-11-23T15:52:30.132Z,95826.25
2022-11-23T15:55:08.848Z,95825.97
2022-11-23T15:57:39.342Z,95828.88
2022-11-23T16:00:11.419Z,95831.09
2022-11-23T16:02:40.490Z,95836.09
2022-11-23T16:05:14.567Z,95838.16
2022-11-23T16:07:52.959Z,95838.28
2022-11-23T16:10:24.813Z,95840.91
2022-11-23T16:12:54.312Z,95843.72
2022-11-23T16:15:41.779Z,95860.63
2022-11-23T16:18:22.624Z,95863.91
2022-11-23T16:20:53.758Z,95859.25
2022-11-23T16:23:24.388Z,95869.47
2022-11-23T16:25:58.003Z,95871.28
2022-11-23T16:28:31.580Z,95882.00
2022-11-23T16:31:25.625Z,95888.53
2022-11-23T16:33:54.344Z,95895.03
2022-11-23T16:36:23.064Z,95897.44
2022-11-23T16:39:09.963Z,95900.44
2022-11-23T16:41:42.690Z,95905.22
2022-11-23T16:44:11.674Z,95918.06
2022-11-23T16:46:43.430Z,95920.28
2022-11-23T16:49:16.920Z,95928.88
2022-11-23T16:51:48.974Z,95933.81
2022-11-23T16:54:25.177Z,95933.78
2022-11-23T16:56:57.317Z,95941.81
2022-11-23T16:59:51.619Z,95945.66
2022-11-23T17:02:23.076Z,95947.38
2022-11-23T17:04:55.047Z,95951.13
2022-11-23T17:07:42.413Z,95960.31
2022-11-23T17:10:11.296Z,95958.91
2022-11-23T17:12:48.633Z,95961.38
2022-11-23T17:15:17.321Z,95971.94
2022-11-23T17:17:49.193Z,95982.63
2022-11-23T17:20:18.080Z,95976.47
2022-11-23T17:26:02.370Z,95993.25
2022-11-23T17:28:34.575Z,95989.78
2022-11-23T17:31:05.396Z,95996.06
2022-11-23T17:33:34.417Z,95995.59
2022-11-23T17:36:03.107Z,95992.81
2022-11-23T17:38:34.523Z,95984.41
2022-11-23T17:41:03.222Z,95993.78
2022-11-23T17:43:34.559Z,96013.59
2022-11-23T17:46:06.170Z,96023.91
2022-11-23T17:48:38.828Z,96029.34
2022-11-23T17:51:07.654Z,96033.84
2022-11-23T17:53:38.179Z,96033.16
2022-11-23T17:56:07.098Z,96039.06
2022-11-23T17:58:37.692Z,96048.28
2022-11-23T18:01:06.655Z,96050.13
2022-11-23T18:03:45.967Z,96061.16
2022-11-23T18:06:15.644Z,96052.25
2022-11-23T18:08:44.865Z,96056.31
2022-11-23T18:11:14.694Z,96062.88
2022-11-23T18:13:47.401Z,96063.94
2022-11-23T18:16:25.218Z,96065.94
2022-11-23T18:18:53.938Z,96071.25
2022-11-23T18:21:24.341Z,96073.06
2022-11-23T18:23:53.400Z,96082.03
2022-11-23T18:26:24.145Z,96090.31
2022-11-23T18:28:54.590Z,96091.72
2022-11-23T18:31:24.319Z,96084.28
2022-11-23T18:33:54.604Z,96104.44
2022-11-23T18:36:41.492Z,96106.00
2022-11-23T18:39:11.650Z,96106.13
2022-11-23T18:41:40.588Z,96099.28
2022-11-23T18:44:10.697Z,96108.78
2022-11-23T18:46:41.337Z,96111.03
2022-11-23T18:49:10.118Z,96124.47
2022-11-23T18:51:41.560Z,96122.22
2022-11-23T18:54:12.986Z,96128.25
2022-11-23T18:56:41.679Z,96130.59
2022-11-23T18:59:23.975Z,96128.13
2022-11-23T19:02:00.472Z,96132.16
2022-11-23T19:04:29.387Z,96134.41
2022-11-23T19:06:58.736Z,96132.84
2022-11-23T19:09:28.192Z,96139.72
2022-11-23T19:11:57.142Z,96143.75
2022-11-23T19:14:29.859Z,96148.09
2022-11-23T19:16:58.989Z,96156.34
2022-11-23T19:19:27.733Z,96166.72
2022-11-23T19:22:19.628Z,96167.56
2022-11-23T19:24:48.773Z,96179.03
2022-11-23T19:27:17.463Z,96172.88
2022-11-23T19:29:47.463Z,96184.38
2022-11-23T19:32:19.527Z,96181.97
2022-11-23T19:34:48.434Z,96187.44
2022-11-23T19:37:17.079Z,96196.25
2022-11-23T19:39:49.402Z,96193.31
2022-11-23T19:42:18.364Z,96200.19
2022-11-23T19:44:48.461Z,96202.13
2022-11-23T19:47:22.688Z,96208.16
2022-11-23T19:49:52.002Z,96205.06
2022-11-23T19:52:23.147Z,96209.28
2022-11-23T19:54:51.864Z,96210.84
2022-11-23T19:57:21.551Z,96212.53
2022-11-23T19:59:53.206Z,96211.09
2022-11-23T20:05:15.962Z,96225.25
2022-11-23T20:07:45.151Z,96227.47
2022-11-23T20:10:13.912Z,96224.41
2022-11-23T20:12:42.921Z,96230.25
2022-11-23T20:15:13.425Z,96232.25
2022-11-23T20:17:42.063Z,96246.81
2022-11-23T20:20:13.510Z,96237.00
2022-11-23T20:22:45.243Z,96243.97
2022-11-23T20:25:14.719Z,96245.94
2022-11-23T20:27:43.418Z,96253.94
2022-11-23T20:30:28.227Z,96242.44
2022-11-23T20:32:57.026Z,96250.31
2022-11-23T20:38:12.188Z,96249.31
2022-11-23T20:40:40.821Z,96256.88
2022-11-23T20:43:09.527Z,96262.63
2022-11-23T20:48:35.997Z,96260.38
2022-11-23T20:51:09.041Z,96273.84
2022-11-23T20:53:39.224Z,96283.47
2022-11-23T20:56:10.934Z,96274.09
2022-11-23T20:58:43.260Z,96288.78
2022-11-23T21:01:14.349Z,96288.78
2022-11-23T21:03:43.481Z,96288.66
2022-11-23T21:06:12.968Z,96281.13
2022-11-23T21:08:42.119Z,96290.22
2022-11-23T21:11:26.313Z,96289.47
2022-11-23T21:14:12.394Z,96289.50
2022-11-23T21:16:49.387Z,96286.44
2022-11-23T21:19:18.124Z,96288.38
2022-11-23T21:21:47.871Z,96290.72
2022-11-23T21:24:17.896Z,96295.94
2022-11-23T21:26:48.665Z,96298.50
2022-11-23T21:29:17.334Z,96305.94
2022-11-23T21:31:48.019Z,96318.81
2022-11-23T21:34:18.669Z,96311.66
2022-11-23T21:36:47.771Z,96310.13
2022-11-23T21:39:17.859Z,96313.22
2022-11-23T21:41:53.635Z,96326.78
2022-11-23T21:44:22.459Z,96322.31
2022-11-23T21:46:52.745Z,96331.41
2022-11-23T21:49:21.547Z,96340.69
2022-11-23T21:51:50.491Z,96335.50
2022-11-23T21:54:19.222Z,96335.94
2022-11-23T21:56:48.758Z,96345.16
2022-11-23T21:59:17.430Z,96342.47
2022-11-23T22:01:47.486Z,96350.06
2022-11-23T22:04:17.660Z,96347.94
2022-11-23T22:06:49.547Z,96354.13
2022-11-23T22:09:18.463Z,96364.88
2022-11-23T22:11:47.218Z,96360.53
2022-11-23T22:14:17.298Z,96360.84
2022-11-23T22:16:46.978Z,96362.81
2022-11-23T22:19:17.810Z,96366.44
2022-11-23T22:21:46.927Z,96371.50
2022-11-23T22:24:16.506Z,96369.94
2022-11-23T22:26:47.938Z,96375.00
2022-11-23T22:29:16.803Z,96383.13
2022-11-23T22:31:47.735Z,96380.59
2022-11-23T22:34:18.074Z,96382.16
2022-11-23T22:36:46.787Z,96391.63
2022-11-23T22:39:15.535Z,96389.72
2022-11-23T22:41:44.278Z,96394.59
2022-11-23T22:44:13.579Z,96399.50
2022-11-23T22:46:42.325Z,96403.84
2022-11-23T22:49:11.147Z,96411.81
2022-11-23T22:51:42.810Z,96408.88
2022-11-23T22:54:11.952Z,96418.81
2022-11-23T22:56:40.646Z,96413.41
2022-11-23T22:59:09.346Z,96417.97
2022-11-23T23:01:38.299Z,96413.22
2022-11-23T23:04:07.352Z,96424.53
2022-11-23T23:06:36.249Z,96410.53
2022-11-23T23:09:07.359Z,96420.34
2022-11-23T23:11:37.580Z,96424.22
2022-11-23T23:14:06.656Z,96434.59
2022-11-23T23:16:35.386Z,96437.00
2022-11-23T23:19:04.241Z,96431.66
2022-11-23T23:21:33.289Z,96441.63
2022-11-23T23:24:02.543Z,96445.00
2022-11-23T23:26:32.643Z,96447.91
2022-11-23T23:29:01.708Z,96448.06
2022-11-23T23:31:30.660Z,96449.75
2022-11-23T23:34:00.696Z,96444.16
2022-11-23T23:36:29.843Z,96457.03
2022-11-23T23:38:59.614Z,96460.50
2022-11-23T23:41:28.330Z,96457.84
2022-11-23T23:43:58.760Z,96461.13
2022-11-23T23:46:27.487Z,96464.34
2022-11-23T23:48:56.199Z,96467.16
2022-11-23T23:51:25.270Z,96473.75
2022-11-23T23:54:01.503Z,96470.41
2022-11-23T23:56:30.421Z,96476.41
2022-11-23T23:59:00.548Z,96470.81
